createdAt,value
2019-02-08T00:00:45.186Z,78.76
2019-02-08T00:03:14.648Z,78.57
2019-02-08T00:05:44.238Z,78.40
2019-02-08T00:08:13.774Z,77.82
2019-02-08T00:10:43.319Z,77.77
2019-02-08T00:13:12.759Z,78.10
2019-02-08T00:15:42.405Z,78.18
2019-02-08T00:18:12.287Z,78.03
2019-02-08T00:20:41.825Z,78.01
2019-02-08T00:23:11.271Z,78.21
2019-02-08T00:25:41.169Z,78.22
2019-02-08T00:28:10.704Z,77.82
2019-02-08T00:30:40.171Z,77.96
2019-02-08T00:33:09.744Z,78.73
2019-02-08T00:35:39.440Z,78.74
2019-02-08T00:38:09.913Z,78.55
2019-02-08T00:40:39.647Z,79.06
2019-02-08T00:43:09.167Z,78.85
2019-02-08T00:45:38.612Z,78.65
2019-02-08T00:48:08.231Z,78.59
2019-02-08T00:50:37.675Z,78.50
2019-02-08T00:53:07.142Z,78.27
2019-02-08T00:55:36.584Z,78.36
2019-02-08T00:58:06.472Z,78.09
2019-02-08T01:00:36.004Z,77.85
2019-02-08T01:03:06.591Z,77.51
2019-02-08T01:05:36.123Z,77.39
2019-02-08T01:08:06.055Z,77.68
2019-02-08T01:10:35.676Z,77.48
2019-02-08T01:13:05.781Z,77.36
2019-02-08T01:15:35.623Z,77.71
2019-02-08T01:18:05.675Z,77.56
2019-02-08T01:20:35.144Z,77.58
2019-02-08T01:23:04.768Z,77.84
2019-02-08T01:25:34.375Z,77.75
2019-02-08T01:28:03.824Z,78.08
2019-02-08T01:30:34.306Z,78.11
2019-02-08T01:33:03.998Z,78.50
2019-02-08T01:35:33.536Z,78.76
2019-02-08T01:38:03.038Z,78.85
2019-02-08T01:40:39.973Z,78.53
2019-02-08T01:43:09.957Z,78.38
2019-02-08T01:45:39.429Z,78.32
2019-02-08T01:48:09.515Z,78.44
2019-02-08T01:50:39.051Z,78.33
2019-02-08T01:53:08.514Z,78.64
2019-02-08T01:55:37.976Z,78.57
2019-02-08T01:58:07.569Z,78.44
2019-02-08T02:00:42.798Z,78.38
2019-02-08T02:03:12.461Z,78.38
2019-02-08T02:05:42.047Z,78.27
2019-02-08T02:08:11.846Z,78.34
2019-02-08T02:10:44.297Z,78.09
2019-02-08T02:13:13.883Z,78.29
2019-02-08T02:15:43.346Z,78.36
2019-02-08T02:18:13.428Z,78.59
2019-02-08T02:20:44.419Z,78.78
2019-02-08T02:23:15.989Z,78.54
2019-02-08T02:25:45.874Z,78.37
2019-02-08T02:28:15.479Z,78.34
2019-02-08T02:30:44.990Z,78.86
2019-02-08T02:33:15.213Z,79.93
2019-02-08T02:35:44.812Z,80.15
2019-02-08T02:38:14.326Z,80.39
2019-02-08T02:40:43.795Z,80.41
2019-02-08T02:43:13.306Z,80.16
2019-02-08T02:45:42.886Z,80.04
2019-02-08T02:48:13.794Z,80.34
2019-02-08T02:50:43.391Z,81.65
2019-02-08T02:53:13.150Z,80.81
2019-02-08T02:55:42.595Z,81.07
2019-02-08T02:58:12.130Z,80.91
2019-02-08T03:00:47.190Z,80.96
2019-02-08T03:03:17.583Z,80.66
2019-02-08T03:05:47.212Z,80.29
2019-02-08T03:08:17.266Z,80.41
2019-02-08T03:10:47.038Z,80.54
2019-02-08T03:13:16.547Z,80.51
2019-02-08T03:15:46.146Z,80.58
2019-02-08T03:18:15.671Z,82.50
2019-02-08T03:20:45.204Z,81.91
2019-02-08T03:23:14.652Z,82.11
2019-02-08T03:25:44.336Z,81.64
2019-02-08T03:28:14.044Z,81.55
2019-02-08T03:30:45.725Z,81.76
2019-02-08T03:33:15.186Z,82.35
2019-02-08T03:35:44.775Z,82.49
2019-02-08T03:38:14.287Z,83.28
2019-02-08T03:40:43.739Z,82.89
2019-02-08T03:43:13.272Z,83.47
2019-02-08T03:45:47.022Z,83.15
2019-02-08T03:48:16.611Z,83.04
2019-02-08T03:50:46.091Z,84.34
2019-02-08T03:53:15.617Z,83.67
2019-02-08T03:55:45.076Z,83.14
2019-02-08T03:58:14.678Z,83.26
2019-02-08T04:00:48.455Z,82.93
2019-02-08T04:03:17.895Z,82.25
2019-02-08T04:05:47.404Z,81.97
2019-02-08T04:08:16.872Z,81.98
2019-02-08T04:10:46.312Z,81.79
2019-02-08T04:13:15.764Z,82.85
2019-02-08T04:15:45.376Z,82.23
2019-02-08T04:18:14.887Z,82.10
2019-02-08T04:20:44.377Z,82.44
2019-02-08T04:23:13.825Z,82.33
2019-02-08T04:25:43.267Z,82.57
2019-02-08T04:28:12.729Z,82.79
2019-02-08T04:30:42.174Z,83.43
2019-02-08T04:33:11.734Z,83.54
2019-02-08T04:35:41.168Z,83.00
2019-02-08T04:38:10.796Z,82.81
2019-02-08T04:40:40.236Z,82.72
2019-02-08T04:43:09.745Z,82.27
2019-02-08T04:45:39.188Z,82.01
2019-02-08T04:48:08.660Z,82.63
2019-02-08T04:50:38.098Z,83.18
2019-02-08T04:53:07.571Z,83.12
2019-02-08T04:55:37.097Z,83.30
2019-02-08T04:58:06.548Z,83.19
2019-02-08T05:00:38.254Z,83.70
2019-02-08T05:03:07.844Z,84.03
2019-02-08T05:05:37.289Z,84.37
2019-02-08T05:08:07.008Z,85.22
2019-02-08T05:10:36.616Z,85.25
2019-02-08T05:13:06.216Z,85.16
2019-02-08T05:15:35.742Z,85.67
2019-02-08T05:18:05.421Z,85.79
2019-02-08T05:20:35.018Z,85.68
2019-02-08T05:23:04.629Z,86.05
2019-02-08T05:25:34.076Z,85.99
2019-02-08T05:28:03.624Z,86.33
2019-02-08T05:30:36.762Z,86.31
2019-02-08T05:33:07.084Z,86.08
2019-02-08T05:35:36.614Z,86.45
2019-02-08T05:38:06.224Z,85.58
2019-02-08T05:40:35.763Z,84.69
2019-02-08T05:43:05.848Z,84.18
2019-02-08T05:45:35.324Z,84.76
2019-02-08T05:48:05.112Z,84.32
2019-02-08T05:50:34.560Z,84.71
2019-02-08T05:53:04.194Z,85.42
2019-02-08T05:55:34.249Z,84.61
2019-02-08T05:58:04.206Z,85.04
2019-02-08T06:00:42.644Z,84.11
2019-02-08T06:03:12.100Z,84.54
2019-02-08T06:05:42.177Z,84.11
2019-02-08T06:08:11.850Z,83.74
2019-02-08T06:10:41.366Z,83.05
2019-02-08T06:13:11.526Z,84.25
2019-02-08T06:15:41.219Z,84.36
2019-02-08T06:18:11.619Z,84.02
2019-02-08T06:20:41.490Z,84.28
2019-02-08T06:23:10.948Z,84.35
2019-02-08T06:25:40.478Z,83.64
2019-02-08T06:28:10.003Z,84.10
2019-02-08T06:30:39.540Z,83.73
2019-02-08T06:33:09.130Z,83.50
2019-02-08T06:35:38.910Z,83.05
2019-02-08T06:38:08.519Z,82.71
2019-02-08T06:40:44.936Z,82.69
2019-02-08T06:43:14.635Z,82.62
2019-02-08T06:45:44.219Z,82.29
2019-02-08T06:48:13.890Z,82.02
2019-02-08T06:50:43.336Z,82.05
2019-02-08T06:53:12.787Z,81.93
2019-02-08T06:55:42.255Z,82.07
2019-02-08T06:58:21.137Z,82.28
2019-02-08T07:00:55.083Z,82.19
2019-02-08T07:03:31.942Z,82.18
2019-02-08T07:06:05.821Z,82.41
2019-02-08T07:08:54.837Z,82.70
2019-02-08T07:11:37.621Z,83.04
2019-02-08T07:14:12.528Z,82.65
2019-02-08T07:16:49.077Z,83.58
2019-02-08T07:19:35.739Z,83.86
2019-02-08T07:22:12.914Z,82.96
2019-02-08T07:24:44.563Z,82.54
2019-02-08T07:27:21.628Z,82.17
2019-02-08T07:30:01.530Z,82.12
2019-02-08T07:32:38.031Z,81.60
2019-02-08T07:35:28.408Z,82.10
2019-02-08T07:38:03.158Z,82.19
2019-02-08T07:40:38.964Z,82.17
2019-02-08T07:43:13.145Z,82.36
2019-02-08T07:45:56.358Z,82.22
2019-02-08T07:48:29.585Z,81.62
2019-02-08T07:51:01.446Z,81.82
2019-02-08T07:53:44.465Z,81.72
2019-02-08T07:56:31.389Z,81.67
2019-02-08T07:59:02.554Z,80.82
2019-02-08T08:01:49.817Z,81.10
2019-02-08T08:04:26.666Z,81.84
2019-02-08T08:06:58.592Z,81.49
2019-02-08T08:09:33.381Z,81.17
2019-02-08T08:12:07.654Z,81.59
2019-02-08T08:14:56.416Z,81.13
2019-02-08T08:17:36.271Z,81.12
2019-02-08T08:20:14.957Z,80.94
2019-02-08T08:23:02.224Z,80.92
2019-02-08T08:25:37.971Z,81.64
2019-02-08T08:28:14.888Z,81.46
2019-02-08T08:30:52.145Z,81.27
2019-02-08T08:33:32.020Z,81.63
2019-02-08T08:36:18.134Z,81.65
2019-02-08T08:38:57.970Z,81.61
2019-02-08T08:41:40.772Z,80.88
2019-02-08T08:44:20.617Z,80.62
2019-02-08T08:47:11.347Z,81.02
2019-02-08T08:50:03.091Z,81.07
2019-02-08T08:52:40.028Z,81.15
2019-02-08T08:55:54.763Z,81.03
2019-02-08T08:58:49.646Z,80.67
2019-02-08T09:01:44.320Z,80.78
2019-02-08T09:04:39.271Z,81.23
2019-02-08T09:07:27.986Z,81.07
2019-02-08T09:10:27.446Z,80.58
2019-02-08T09:13:26.925Z,80.47
2019-02-08T09:16:09.622Z,80.15
2019-02-08T09:19:07.327Z,79.87
2019-02-08T09:21:41.481Z,80.02
2019-02-08T09:24:37.785Z,80.19
2019-02-08T09:27:22.907Z,79.69
2019-02-08T09:30:11.816Z,79.66
2019-02-08T09:32:58.084Z,80.09
2019-02-08T09:35:56.196Z,80.24
2019-02-08T09:39:07.764Z,80.40
2019-02-08T09:42:01.054Z,80.31
2019-02-08T09:45:12.387Z,80.47
2019-02-08T09:48:23.865Z,80.20
2019-02-08T09:51:38.140Z,80.34
2019-02-08T09:54:31.471Z,79.95
2019-02-08T09:57:14.247Z,80.31
2019-02-08T10:00:10.660Z,80.19
2019-02-08T10:03:32.907Z,80.54
2019-02-08T10:06:21.990Z,80.85
2019-02-08T10:09:16.770Z,81.91
2019-02-08T10:12:10.168Z,81.52
2019-02-08T10:15:06.476Z,81.37
2019-02-08T10:17:49.133Z,81.20
2019-02-08T10:20:46.895Z,81.90
2019-02-08T10:23:52.407Z,82.21
2019-02-08T10:26:41.267Z,81.83
2019-02-08T10:29:36.163Z,81.63
2019-02-08T10:32:32.451Z,81.38
2019-02-08T10:35:37.585Z,81.22
2019-02-08T10:38:35.389Z,81.35
2019-02-08T10:41:30.558Z,81.21
2019-02-08T10:44:14.731Z,80.83
2019-02-08T10:47:10.736Z,81.32
2019-02-08T10:50:14.296Z,80.92
2019-02-08T10:53:34.591Z,80.73
2019-02-08T10:56:36.967Z,80.70
2019-02-08T10:59:52.886Z,80.07
2019-02-08T11:02:59.564Z,80.36
2019-02-08T11:06:09.598Z,80.37
2019-02-08T11:09:17.906Z,80.07
2019-02-08T11:12:23.441Z,79.57
2019-02-08T11:15:06.108Z,79.77
2019-02-08T11:18:08.415Z,79.98
2019-02-08T11:20:37.879Z,80.05
2019-02-08T11:23:07.395Z,80.06
2019-02-08T11:25:36.941Z,79.88
2019-02-08T11:28:06.394Z,79.87
2019-02-08T11:30:35.842Z,79.97
2019-02-08T11:33:06.248Z,79.36
2019-02-08T11:35:35.691Z,79.30
2019-02-08T11:38:05.676Z,79.54
2019-02-08T11:40:35.272Z,79.80
2019-02-08T11:43:04.990Z,79.54
2019-02-08T11:45:34.580Z,79.68
2019-02-08T11:48:04.285Z,79.83
2019-02-08T11:50:33.793Z,79.50
2019-02-08T11:53:03.238Z,79.13
2019-02-08T11:55:32.712Z,78.63
2019-02-08T11:58:02.841Z,78.55
2019-02-08T12:00:36.624Z,79.06
2019-02-08T12:03:07.075Z,79.12
2019-02-08T12:05:36.606Z,79.05
2019-02-08T12:08:07.956Z,79.13
2019-02-08T12:10:37.399Z,78.79
2019-02-08T12:13:06.871Z,79.07
2019-02-08T12:15:36.578Z,78.73
2019-02-08T12:18:06.193Z,78.98
2019-02-08T12:20:35.704Z,78.83
2019-02-08T12:23:05.412Z,78.65
2019-02-08T12:25:34.851Z,78.85
2019-02-08T12:28:04.738Z,78.17
2019-02-08T12:30:41.109Z,77.41
2019-02-08T12:33:10.555Z,77.32
2019-02-08T12:35:40.004Z,77.22
2019-02-08T12:38:09.473Z,77.09
2019-02-08T12:40:38.945Z,78.20
2019-02-08T12:43:08.413Z,78.34
2019-02-08T12:45:37.948Z,78.60
2019-02-08T12:48:07.638Z,78.62
2019-02-08T12:50:37.230Z,78.73
2019-02-08T12:53:06.696Z,78.34
2019-02-08T12:55:36.137Z,79.01
2019-02-08T12:58:05.588Z,78.49
2019-02-08T13:00:35.045Z,78.02
2019-02-08T13:03:04.494Z,77.83
2019-02-08T13:05:33.954Z,78.21
2019-02-08T13:08:03.416Z,78.33
2019-02-08T13:10:32.941Z,78.65
2019-02-08T13:13:02.876Z,78.17
2019-02-08T13:15:32.588Z,77.81
2019-02-08T13:18:02.895Z,77.85
2019-02-08T13:20:32.334Z,77.48
2019-02-08T13:23:02.964Z,77.51
2019-02-08T13:25:32.411Z,77.67
2019-02-08T13:28:03.127Z,77.69
2019-02-08T13:30:34.189Z,77.37
2019-02-08T13:33:03.796Z,76.95
2019-02-08T13:35:33.414Z,77.39
2019-02-08T13:38:02.893Z,77.01
2019-02-08T13:40:32.626Z,77.09
2019-02-08T13:43:02.881Z,76.89
2019-02-08T13:45:32.331Z,76.59
2019-02-08T13:48:02.907Z,76.43
2019-02-08T13:50:34.679Z,77.38
2019-02-08T13:53:04.195Z,77.17
2019-02-08T13:55:33.642Z,76.75
2019-02-08T13:58:03.108Z,76.70
2019-02-08T14:00:36.702Z,76.92
2019-02-08T14:03:07.872Z,76.59
2019-02-08T14:05:37.457Z,75.94
2019-02-08T14:08:07.544Z,75.63
2019-02-08T14:10:37.005Z,75.42
2019-02-08T14:13:06.722Z,74.72
2019-02-08T14:15:37.251Z,75.01
2019-02-08T14:18:06.763Z,75.19
2019-02-08T14:20:36.291Z,75.39
2019-02-08T14:23:05.808Z,75.59
2019-02-08T14:25:35.272Z,76.00
2019-02-08T14:28:04.860Z,75.64
2019-02-08T14:30:41.205Z,75.96
2019-02-08T14:33:10.896Z,75.95
2019-02-08T14:35:40.724Z,76.05
2019-02-08T14:38:15.239Z,76.33
2019-02-08T14:40:44.682Z,76.34
2019-02-08T14:43:14.144Z,76.91
2019-02-08T14:45:43.664Z,76.40
2019-02-08T14:48:13.189Z,76.56
2019-02-08T14:50:42.635Z,76.59
2019-02-08T14:53:12.104Z,76.39
2019-02-08T14:55:41.620Z,76.40
2019-02-08T14:58:11.139Z,76.06
2019-02-08T15:00:40.610Z,75.83
2019-02-08T15:03:10.056Z,76.39
2019-02-08T15:05:39.498Z,76.41
2019-02-08T15:08:08.964Z,76.53
2019-02-08T15:10:49.080Z,76.66
2019-02-08T15:13:18.551Z,76.72
2019-02-08T15:15:48.061Z,76.51
2019-02-08T15:18:18.707Z,76.11
2019-02-08T15:20:48.255Z,76.40
2019-02-08T15:23:17.767Z,76.89
2019-02-08T15:25:47.229Z,76.58
2019-02-08T15:28:16.928Z,76.51
2019-02-08T15:30:46.373Z,76.28
2019-02-08T15:33:15.938Z,76.63
2019-02-08T15:35:45.387Z,77.10
2019-02-08T15:38:14.831Z,76.79
2019-02-08T15:40:48.306Z,76.74
2019-02-08T15:43:20.680Z,77.00
2019-02-08T15:45:59.100Z,76.74
2019-02-08T15:48:28.568Z,76.83
2019-02-08T15:50:58.107Z,77.11
2019-02-08T15:53:27.553Z,76.95
2019-02-08T15:56:10.981Z,77.03
2019-02-08T15:58:40.444Z,77.02
2019-02-08T16:01:11.509Z,76.65
2019-02-08T16:03:40.964Z,76.86
2019-02-08T16:06:10.716Z,77.00
2019-02-08T16:08:40.260Z,76.85
2019-02-08T16:11:09.856Z,76.57
2019-02-08T16:13:39.318Z,76.51
2019-02-08T16:16:09.194Z,76.59
2019-02-08T16:18:38.644Z,76.58
2019-02-08T16:21:08.162Z,76.53
2019-02-08T16:23:37.743Z,76.24
2019-02-08T16:26:07.313Z,76.50
2019-02-08T16:28:36.877Z,76.91
2019-02-08T16:31:06.723Z,77.38
2019-02-08T16:33:36.243Z,76.90
2019-02-08T16:36:06.607Z,76.29
2019-02-08T16:38:36.040Z,76.13
2019-02-08T16:41:06.098Z,76.13
2019-02-08T16:43:35.604Z,76.00
2019-02-08T16:46:05.806Z,75.93
2019-02-08T16:48:35.393Z,75.57
2019-02-08T16:51:05.056Z,75.74
2019-02-08T16:53:34.577Z,75.68
2019-02-08T16:56:04.231Z,76.04
2019-02-08T16:58:34.009Z,76.01
2019-02-08T17:01:03.773Z,76.20
2019-02-08T17:03:33.284Z,76.31
2019-02-08T17:06:02.857Z,76.52
2019-02-08T17:08:32.399Z,76.63
2019-02-08T17:11:01.873Z,76.35
2019-02-08T17:13:33.574Z,76.73
2019-02-08T17:16:03.242Z,76.65
2019-02-08T17:18:32.814Z,76.58
2019-02-08T17:21:02.372Z,76.23
2019-02-08T17:23:31.876Z,76.37
2019-02-08T17:26:01.375Z,76.37
2019-02-08T17:28:30.965Z,76.77
2019-02-08T17:31:00.446Z,76.71
2019-02-08T17:33:30.055Z,75.96
2019-02-08T17:35:59.583Z,75.98
2019-02-08T17:38:29.622Z,76.88
2019-02-08T17:40:59.085Z,76.55
2019-02-08T17:43:28.613Z,76.75
2019-02-08T17:45:58.118Z,75.86
2019-02-08T17:48:27.583Z,76.56
2019-02-08T17:50:57.039Z,75.87
2019-02-08T17:53:26.505Z,75.81
2019-02-08T17:55:55.967Z,75.90
2019-02-08T17:58:25.424Z,75.88
2019-02-08T18:00:56.520Z,75.98
2019-02-08T18:03:26.060Z,75.46
2019-02-08T18:05:55.497Z,75.71
2019-02-08T18:08:26.579Z,75.48
2019-02-08T18:10:56.104Z,74.69
2019-02-08T18:13:25.556Z,74.96
2019-02-08T18:15:55.012Z,74.93
2019-02-08T18:18:24.458Z,74.74
2019-02-08T18:20:58.009Z,74.97
2019-02-08T18:23:27.477Z,74.86
2019-02-08T18:25:57.132Z,74.25
2019-02-08T18:28:28.138Z,74.12
2019-02-08T18:30:57.594Z,74.49
2019-02-08T18:33:27.057Z,75.00
2019-02-08T18:35:56.501Z,75.00
2019-02-08T18:38:25.954Z,75.00
2019-02-08T18:40:55.654Z,74.92
2019-02-08T18:43:25.121Z,74.40
2019-02-08T18:45:54.564Z,74.29
2019-02-08T18:48:24.035Z,74.12
2019-02-08T18:50:55.234Z,74.14
2019-02-08T18:53:24.688Z,74.19
2019-02-08T18:55:54.129Z,73.64
2019-02-08T18:58:23.602Z,73.30
2019-02-08T19:00:54.676Z,73.00
2019-02-08T19:03:24.898Z,72.81
2019-02-08T19:05:54.335Z,72.55
2019-02-08T19:08:23.801Z,72.89
2019-02-08T19:10:53.315Z,73.18
2019-02-08T19:13:22.785Z,73.60
2019-02-08T19:15:52.375Z,72.97
2019-02-08T19:18:21.817Z,72.58
2019-02-08T19:20:51.294Z,72.79
2019-02-08T19:23:20.748Z,73.64
2019-02-08T19:25:50.349Z,73.42
2019-02-08T19:28:26.385Z,73.03
2019-02-08T19:30:51.049Z,72.96
2019-02-08T19:33:20.487Z,73.04
2019-02-08T19:35:49.927Z,72.78
2019-02-08T19:38:19.466Z,72.87
2019-02-08T19:40:49.388Z,72.78
2019-02-08T19:43:18.859Z,72.40
2019-02-08T19:45:48.440Z,72.63
2019-02-08T19:48:17.886Z,72.73
2019-02-08T19:50:50.080Z,72.94
2019-02-08T19:53:19.540Z,73.20
2019-02-08T19:55:49.065Z,72.68
2019-02-08T19:58:18.537Z,72.25
2019-02-08T20:00:47.977Z,72.02
2019-02-08T20:03:17.505Z,72.03
2019-02-08T20:05:47.044Z,72.32
2019-02-08T20:08:16.567Z,72.53
2019-02-08T20:10:49.194Z,72.36
2019-02-08T20:13:18.656Z,72.41
2019-02-08T20:15:48.102Z,72.22
2019-02-08T20:18:17.651Z,72.50
2019-02-08T20:20:47.096Z,72.11
2019-02-08T20:23:16.571Z,72.02
2019-02-08T20:25:46.452Z,72.34
2019-02-08T20:28:15.916Z,72.77
2019-02-08T20:30:45.378Z,72.52
2019-02-08T20:33:14.903Z,73.30
2019-02-08T20:35:44.346Z,72.87
2019-02-08T20:38:14.060Z,72.39
2019-02-08T20:40:49.923Z,72.47
2019-02-08T20:43:19.386Z,72.50
2019-02-08T20:45:48.841Z,72.42
2019-02-08T20:48:21.454Z,72.17
2019-02-08T20:50:50.986Z,72.76
2019-02-08T20:53:20.885Z,72.68
2019-02-08T20:55:52.232Z,72.24
2019-02-08T20:58:22.071Z,71.95
2019-02-08T21:00:53.161Z,71.74
2019-02-08T21:03:23.632Z,71.56
2019-02-08T21:05:53.244Z,71.76
2019-02-08T21:08:22.838Z,72.54
2019-02-08T21:10:52.538Z,72.53
2019-02-08T21:13:21.988Z,72.67
2019-02-08T21:15:51.443Z,72.01
2019-02-08T21:18:20.912Z,71.82
2019-02-08T21:20:50.723Z,72.34
2019-02-08T21:23:20.177Z,72.46
2019-02-08T21:25:51.694Z,71.79
2019-02-08T21:28:20.819Z,72.02
2019-02-08T21:30:50.337Z,71.64
2019-02-08T21:33:19.828Z,71.66
2019-02-08T21:35:49.652Z,71.45
2019-02-08T21:38:20.191Z,71.79
2019-02-08T21:40:49.706Z,71.51
2019-02-08T21:43:19.165Z,71.24
2019-02-08T21:45:48.613Z,71.10
2019-02-08T21:48:18.068Z,71.94
2019-02-08T21:50:47.611Z,71.37
2019-02-08T21:53:17.144Z,72.14
2019-02-08T21:55:46.602Z,71.77
2019-02-08T21:58:16.070Z,71.95
2019-02-08T22:00:45.699Z,72.05
2019-02-08T22:03:15.387Z,71.73
2019-02-08T22:05:49.214Z,71.59
2019-02-08T22:08:18.926Z,71.63
2019-02-08T22:10:48.373Z,72.84
2019-02-08T22:13:17.833Z,73.27
2019-02-08T22:15:47.616Z,73.26
2019-02-08T22:18:17.138Z,72.75
2019-02-08T22:20:46.599Z,72.86
2019-02-08T22:23:16.042Z,73.41
2019-02-08T22:25:45.505Z,73.19
2019-02-08T22:28:14.952Z,73.27
2019-02-08T22:30:44.468Z,73.20
2019-02-08T22:33:13.932Z,73.54
2019-02-08T22:35:43.445Z,73.37
2019-02-08T22:38:12.895Z,72.82
2019-02-08T22:40:42.374Z,73.12
2019-02-08T22:43:11.810Z,73.38
2019-02-08T22:45:43.087Z,73.43
2019-02-08T22:48:12.609Z,73.61
2019-02-08T22:50:42.053Z,73.47
2019-02-08T22:53:11.666Z,73.42
2019-02-08T22:55:41.108Z,73.12
2019-02-08T22:58:10.728Z,73.35
2019-02-08T23:00:54.068Z,73.00
2019-02-08T23:03:23.519Z,73.37
2019-02-08T23:05:52.968Z,73.01
2019-02-08T23:08:22.437Z,72.66
2019-02-08T23:10:51.879Z,73.18
2019-02-08T23:13:21.336Z,73.35
2019-02-08T23:15:50.825Z,72.82
2019-02-08T23:18:20.277Z,73.01
2019-02-08T23:20:49.821Z,73.50
2019-02-08T23:23:19.284Z,73.08
2019-02-08T23:25:48.726Z,72.97
2019-02-08T23:28:18.193Z,72.96
2019-02-08T23:30:47.636Z,72.73
2019-02-08T23:33:17.147Z,72.84
2019-02-08T23:35:46.612Z,72.57
2019-02-08T23:38:16.059Z,72.27
2019-02-08T23:40:45.523Z,72.22
2019-02-08T23:43:15.042Z,71.90
2019-02-08T23:45:44.505Z,71.76
2019-02-08T23:48:13.954Z,71.18
2019-02-08T23:50:43.423Z,71.16
2019-02-08T23:53:12.884Z,70.77
2019-02-08T23:55:42.325Z,71.62
2019-02-08T23:58:11.846Z,71.67
